Time;durP1;ratioP1;P1;durP2;ratioP2;P2;SDS_P1;SDS_P2;PMS_P1;PMS_P2;Temp;Humidity;BMP_temperature;BMP_pressure;BME280_temperature;BME280_humidity;BME280_pressure;Samples;Min_cycle;Max_cycle;Signal;HPM_P1;HPM_P2
2021/04/14 00:01:21;;;;;;;3.13;2.07;;;-0.30;99.90;;;;;;5071566;28;20210;-72
2021/04/14 00:03:47;;;;;;;3.70;2.03;;;-0.30;99.90;;;;;;5071615;28;20180;-73
2021/04/14 00:06:13;;;;;;;3.00;2.40;;;-0.30;99.90;;;;;;5071189;28;20696;-73
2021/04/14 00:08:39;;;;;;;2.90;2.07;;;-0.30;99.90;;;;;;5071236;28;20165;-73
2021/04/14 00:11:07;;;;;;;10.80;2.20;;;-0.30;99.90;;;;;;5071396;28;20427;-72
2021/04/14 00:13:41;;;;;;;1.93;1.83;;;-0.40;99.90;;;;;;5071431;28;20222;-73
2021/04/14 00:16:12;;;;;;;3.30;2.23;;;-0.40;99.90;;;;;;5068104;28;20432;-73
2021/04/14 00:18:37;;;;;;;2.00;1.30;;;-0.40;99.90;;;;;;5071320;28;20762;-72
2021/04/14 00:21:03;;;;;;;2.13;1.90;;;-0.50;99.90;;;;;;5071799;28;20402;-73
2021/04/14 00:23:28;;;;;;;5.90;2.23;;;-0.50;99.90;;;;;;5071497;28;20184;-73
2021/04/14 00:25:54;;;;;;;3.90;1.47;;;-0.50;99.90;;;;;;5070722;28;20196;-73
2021/04/14 00:28:22;;;;;;;3.07;2.70;;;-0.50;99.90;;;;;;5071568;28;20173;-73
2021/04/14 00:30:49;;;;;;;2.10;1.83;;;-0.50;99.90;;;;;;5071430;28;20173;-72
2021/04/14 00:33:15;;;;;;;3.73;1.97;;;-0.50;99.90;;;;;;5072100;28;20419;-73
2021/04/14 00:35:41;;;;;;;2.33;2.13;;;-0.60;99.90;;;;;;5070284;28;20433;-72
2021/04/14 00:38:07;;;;;;;11.33;1.97;;;-0.50;99.90;;;;;;5071117;28;20461;-72
2021/04/14 00:40:37;;;;;;;6.70;1.83;;;-0.60;99.90;;;;;;5071234;28;20180;-72
2021/04/14 00:43:16;;;;;;;4.90;2.47;;;-0.60;99.90;;;;;;5067520;28;20427;-72
2021/04/14 00:45:41;;;;;;;1.70;1.60;;;-0.60;99.90;;;;;;5068172;28;20440;-72
2021/04/14 00:48:08;;;;;;;4.10;1.60;;;-0.60;99.90;;;;;;5069547;28;20411;-72
2021/04/14 00:50:35;;;;;;;1.57;1.20;;;-0.60;99.90;;;;;;5070980;28;20183;-72
2021/04/14 00:53:02;;;;;;;1.97;1.50;;;-0.70;99.90;;;;;;5070812;28;20442;-72
2021/04/14 00:55:29;;;;;;;1.30;1.20;;;-0.70;99.90;;;;;;5070594;28;20472;-72
2021/04/14 00:57:55;;;;;;;3.53;2.00;;;-0.70;99.90;;;;;;5070593;28;20441;-72
2021/04/14 01:00:33;;;;;;;2.00;1.90;;;-0.70;99.90;;;;;;5069570;28;20419;-72
2021/04/14 01:02:59;;;;;;;8.80;1.80;;;-0.70;99.90;;;;;;5066888;28;20187;-72
2021/04/14 01:05:28;;;;;;;2.00;1.90;;;-0.70;99.90;;;;;;5070296;28;20475;-71
2021/04/14 01:07:53;;;;;;;2.10;1.83;;;-0.70;99.90;;;;;;5070661;28;20438;-72
2021/04/14 01:10:19;;;;;;;1.80;1.70;;;-0.80;99.90;;;;;;5070777;28;20793;-72
2021/04/14 01:12:46;;;;;;;1.63;1.40;;;-0.80;99.90;;;;;;5069385;28;20691;-72
2021/04/14 01:15:15;;;;;;;1.60;1.50;;;-0.80;99.90;;;;;;5070425;28;20431;-72
2021/04/14 01:17:40;;;;;;;1.50;1.40;;;-0.90;99.90;;;;;;5070319;28;20408;-72
2021/04/14 01:20:07;;;;;;;2.10;1.83;;;-0.90;99.90;;;;;;5070633;28;20404;-72
2021/04/14 01:22:33;;;;;;;4.90;2.00;;;-0.90;99.90;;;;;;5070604;28;20223;-72
2021/04/14 01:24:59;;;;;;;3.77;1.57;;;-0.90;99.90;;;;;;5066340;28;20978;-72
2021/04/14 01:27:25;;;;;;;2.37;2.17;;;-0.90;99.90;;;;;;5070129;28;20429;-72
2021/04/14 01:29:50;;;;;;;5.03;1.50;;;-1.00;99.90;;;;;;5070172;28;20743;-72
2021/04/14 01:32:16;;;;;;;1.40;1.30;;;-1.00;99.90;;;;;;5070444;28;20188;-72
2021/04/14 01:34:41;;;;;;;1.83;1.30;;;-1.00;99.90;;;;;;5070401;28;20169;-71
2021/04/14 01:37:07;;;;;;;2.57;1.53;;;-1.00;99.90;;;;;;5070273;28;20557;-72
2021/04/14 01:39:32;;;;;;;1.87;1.77;;;-1.10;99.90;;;;;;5070380;28;20180;-72
2021/04/14 01:41:58;;;;;;;4.43;1.47;;;-1.10;99.90;;;;;;5070758;28;20180;-72
2021/04/14 01:44:23;;;;;;;2.70;1.60;;;-1.10;99.90;;;;;;5070317;28;20188;-72
2021/04/14 01:46:49;;;;;;;3.43;1.27;;;-1.10;99.90;;;;;;5069876;28;20209;-72
2021/04/14 01:49:14;;;;;;;1.67;1.57;;;-1.10;99.90;;;;;;5074230;28;20177;-72
2021/04/14 01:51:40;;;;;;;2.00;1.43;;;-1.10;99.90;;;;;;5074211;28;20555;-72
2021/04/14 01:54:06;;;;;;;2.40;1.53;;;-1.10;99.90;;;;;;5074153;28;20208;-72
2021/04/14 01:56:32;;;;;;;1.10;1.00;;;-1.10;99.90;;;;;;5073906;28;20341;-72
2021/04/14 01:58:58;;;;;;;1.63;1.30;;;-1.10;99.90;;;;;;5073925;28;20421;-72
2021/04/14 02:01:24;;;;;;;1.23;1.10;;;-1.20;99.90;;;;;;5073874;28;20396;-72
2021/04/14 02:03:49;;;;;;;1.90;1.20;;;-1.20;99.90;;;;;;5073878;28;20606;-72
2021/04/14 02:06:16;;;;;;;3.37;1.50;;;-1.20;99.90;;;;;;5073388;28;20292;-72
2021/04/14 02:08:43;;;;;;;3.27;1.70;;;-1.20;99.90;;;;;;5073577;28;20182;-72
2021/04/14 02:11:12;;;;;;;1.47;1.37;;;-1.30;99.90;;;;;;5072926;28;20897;-72
2021/04/14 02:13:39;;;;;;;1.43;1.20;;;-1.30;99.90;;;;;;5073715;28;20419;-72
2021/04/14 02:16:07;;;;;;;1.37;1.23;;;-1.20;99.90;;;;;;5073425;28;20778;-72
2021/04/14 02:18:33;;;;;;;3.10;1.60;;;-1.20;99.90;;;;;;5073658;28;20401;-72
2021/04/14 02:21:00;;;;;;;1.80;1.70;;;-1.20;99.90;;;;;;5073688;28;20425;-72
2021/04/14 02:23:44;;;;;;;3.30;1.90;;;-1.30;99.90;;;;;;5073504;28;20175;-72
2021/04/14 02:26:21;;;;;;;1.57;1.47;;;-1.30;99.90;;;;;;5070668;28;20449;-72
2021/04/14 02:28:48;;;;;;;2.43;1.50;;;-1.40;99.90;;;;;;5073265;28;20816;-72
2021/04/14 02:31:16;;;;;;;1.23;1.13;;;-1.40;99.90;;;;;;5073549;28;20397;-72
2021/04/14 02:33:42;;;;;;;1.27;1.17;;;-1.40;99.90;;;;;;5073312;28;20784;-73
2021/04/14 02:36:08;;;;;;;5.20;1.47;;;-1.40;99.90;;;;;;5073108;28;20417;-72
2021/04/14 02:38:34;;;;;;;3.20;1.87;;;-1.40;99.90;;;;;;5073351;28;20502;-72
2021/04/14 02:41:05;;;;;;;2.80;1.40;;;-1.40;99.90;;;;;;5073434;28;20426;-72
2021/04/14 02:43:30;;;;;;;2.60;1.13;;;-1.40;99.90;;;;;;5069442;28;20400;-72
2021/04/14 02:45:57;;;;;;;5.10;1.60;;;-1.40;99.90;;;;;;5071709;28;20473;-72
2021/04/14 02:48:23;;;;;;;1.90;1.70;;;-1.50;99.90;;;;;;5073133;28;20267;-72
2021/04/14 02:50:49;;;;;;;2.53;1.60;;;-1.50;99.90;;;;;;5070640;28;20975;-72
2021/04/14 02:53:14;;;;;;;3.47;1.83;;;-1.50;99.90;;;;;;5068854;28;20179;-72
2021/04/14 02:55:40;;;;;;;4.43;1.37;;;-1.50;99.90;;;;;;5072595;28;20207;-71
2021/04/14 02:58:06;;;;;;;2.10;1.27;;;-1.60;99.90;;;;;;5070431;28;20726;-72
2021/04/14 03:00:32;;;;;;;2.50;1.43;;;-1.60;99.90;;;;;;5073096;28;20816;-72
2021/04/14 03:02:58;;;;;;;2.13;1.93;;;-1.60;99.90;;;;;;5070710;28;20416;-72
2021/04/14 03:05:29;;;;;;;3.53;1.53;;;-1.60;99.90;;;;;;5070630;28;20220;-69
2021/04/14 03:07:57;;;;;;;3.17;1.37;;;-1.70;99.90;;;;;;5072474;28;20472;-72
2021/04/14 03:10:24;;;;;;;5.57;2.10;;;-1.60;99.90;;;;;;5069883;28;20485;-72
2021/04/14 03:12:50;;;;;;;2.50;1.43;;;-1.70;99.90;;;;;;5072648;28;20400;-72
2021/04/14 03:15:20;;;;;;;3.27;1.80;;;-1.70;99.90;;;;;;5068147;28;20426;-72
2021/04/14 03:17:46;;;;;;;2.70;1.40;;;-1.70;99.90;;;;;;5070621;28;20402;-72
2021/04/14 03:20:12;;;;;;;7.13;1.67;;;-1.70;99.90;;;;;;5065824;28;20461;-72
2021/04/14 03:22:37;;;;;;;3.17;1.40;;;-1.70;99.90;;;;;;5072414;28;20661;-72
2021/04/14 03:25:04;;;;;;;2.53;1.57;;;-1.70;99.90;;;;;;5072005;28;20832;-71
2021/04/14 03:27:30;;;;;;;1.53;1.20;;;-1.70;99.90;;;;;;5068634;28;20199;-72
2021/04/14 03:29:55;;;;;;;1.90;1.80;;;-1.80;99.90;;;;;;5072148;28;20488;-72
2021/04/14 03:32:21;;;;;;;3.43;1.27;;;-1.80;99.90;;;;;;5070181;28;20255;-72
2021/04/14 03:34:47;;;;;;;2.13;1.80;;;-1.80;99.90;;;;;;5070429;28;20190;-71
2021/04/14 03:37:12;;;;;;;2.13;0.90;;;-1.80;99.90;;;;;;5069778;28;20204;-72
2021/04/14 03:39:38;;;;;;;3.40;1.60;;;-1.80;99.90;;;;;;5070628;28;20518;-72
2021/04/14 03:42:04;;;;;;;5.03;1.80;;;-1.70;99.90;;;;;;5071522;28;20599;-71
2021/04/14 03:44:34;;;;;;;1.87;1.77;;;-1.80;99.90;;;;;;5071554;28;20211;-72
2021/04/14 03:47:01;;;;;;;1.47;1.37;;;-1.80;99.90;;;;;;5067783;28;20465;-72
2021/04/14 03:49:27;;;;;;;2.80;1.50;;;-1.80;99.90;;;;;;5069574;28;20527;-72
2021/04/14 03:51:52;;;;;;;1.53;1.43;;;-1.80;99.90;;;;;;5071869;28;20426;-72
2021/04/14 03:54:19;;;;;;;3.77;2.73;;;-1.80;99.90;;;;;;5069710;28;20434;-72
2021/04/14 03:56:45;;;;;;;1.67;1.33;;;-1.80;99.90;;;;;;5071347;28;20574;-72
2021/04/14 03:59:10;;;;;;;2.43;2.23;;;-1.80;99.90;;;;;;5066546;28;20448;-72
2021/04/14 04:01:36;;;;;;;2.90;1.50;;;-1.80;99.90;;;;;;5071812;28;20430;-72
2021/04/14 04:04:02;;;;;;;1.33;1.17;;;-1.80;99.90;;;;;;5071107;28;20560;-72
2021/04/14 04:06:27;;;;;;;2.93;2.00;;;-1.90;99.90;;;;;;5066459;28;20289;-71
2021/04/14 04:08:53;;;;;;;8.20;2.40;;;-1.90;99.90;;;;;;5071461;28;20187;-72
2021/04/14 04:11:21;;;;;;;4.13;2.10;;;-1.90;99.90;;;;;;5068810;28;20261;-72
2021/04/14 04:13:47;;;;;;;3.13;1.83;;;-1.90;99.90;;;;;;5069653;28;20245;-72
2021/04/14 04:16:13;;;;;;;2.30;2.10;;;-1.90;99.90;;;;;;5070083;28;20461;-72
2021/04/14 04:18:39;;;;;;;2.67;1.80;;;-1.90;99.90;;;;;;5070212;28;20401;-72
2021/04/14 04:21:06;;;;;;;2.27;1.70;;;-1.90;99.90;;;;;;5067106;28;20184;-71
2021/04/14 04:23:31;;;;;;;9.67;2.30;;;-1.90;99.90;;;;;;5061885;28;20187;-72
2021/04/14 04:25:57;;;;;;;3.53;1.80;;;-1.90;99.90;;;;;;5068770;28;20466;-72
2021/04/14 04:28:23;;;;;;;2.80;1.80;;;-1.90;99.90;;;;;;5069684;28;20186;-71
2021/04/14 04:30:50;;;;;;;2.77;2.57;;;-1.90;99.90;;;;;;5070974;28;20427;-72
2021/04/14 04:33:17;;;;;;;5.50;2.53;;;-1.90;99.90;;;;;;5070715;28;20182;-72
2021/04/14 04:35:43;;;;;;;3.20;1.87;;;-1.90;99.90;;;;;;5067772;28;20854;-73
2021/04/14 04:38:09;;;;;;;6.40;3.17;;;-1.90;99.90;;;;;;5070864;28;20435;-73
2021/04/14 04:40:34;;;;;;;5.63;3.37;;;-1.90;99.90;;;;;;5070110;28;20198;-73
2021/04/14 04:43:00;;;;;;;2.03;1.93;;;-1.90;99.90;;;;;;5071125;28;20587;-73
2021/04/14 04:45:29;;;;;;;2.23;2.00;;;-1.80;99.90;;;;;;5068857;28;20679;-71
2021/04/14 04:47:55;;;;;;;2.30;1.73;;;-1.80;99.90;;;;;;5068053;28;20222;-73
2021/04/14 04:50:26;;;;;;;8.60;2.00;;;-1.80;99.90;;;;;;5068348;28;20847;-73
2021/04/14 04:52:53;;;;;;;6.47;2.17;;;-1.80;99.90;;;;;;5069103;28;20906;-73
2021/04/14 04:55:19;;;;;;;3.47;2.10;;;-1.80;99.90;;;;;;5070716;28;20936;-73
2021/04/14 04:57:45;;;;;;;3.80;1.70;;;-1.80;99.90;;;;;;5068265;28;20526;-74
2021/04/14 05:00:12;;;;;;;4.27;2.20;;;-1.70;99.90;;;;;;5068793;28;20271;-74
2021/04/14 05:02:38;;;;;;;8.87;2.27;;;-1.70;99.90;;;;;;5069697;28;20817;-73
2021/04/14 05:05:08;;;;;;;2.50;2.30;;;-1.60;99.90;;;;;;5068215;28;20484;-72
2021/04/14 05:07:34;;;;;;;4.00;1.70;;;-1.60;99.90;;;;;;5067164;28;20442;-72
2021/04/14 05:10:00;;;;;;;3.53;2.47;;;-1.50;99.90;;;;;;5066616;28;20436;-73
2021/04/14 05:12:25;;;;;;;3.50;2.43;;;-1.50;99.90;;;;;;5070333;28;20177;-73
2021/04/14 05:14:51;;;;;;;9.20;3.50;;;-1.40;99.90;;;;;;5068394;28;20824;-72
2021/04/14 05:17:16;;;;;;;2.90;1.93;;;-1.30;99.90;;;;;;5071716;28;20198;-73
2021/04/14 05:19:42;;;;;;;7.93;2.60;;;-1.20;99.90;;;;;;5067973;28;20259;-73
2021/04/14 05:22:08;;;;;;;3.90;2.23;;;-1.00;99.90;;;;;;5070780;28;20271;-73
2021/04/14 05:24:34;;;;;;;3.10;2.33;;;-0.70;99.90;;;;;;5074446;28;21436;-74
2021/04/14 05:26:59;;;;;;;3.67;2.40;;;-0.50;99.90;;;;;;5067946;28;20473;-73
2021/04/14 05:29:25;;;;;;;4.00;2.73;;;0.00;99.90;;;;;;5073144;28;20177;-73
2021/04/14 05:31:50;;;;;;;3.20;2.80;;;1.10;99.90;;;;;;5073527;28;20185;-73
2021/04/14 05:34:16;;;;;;;5.83;3.97;;;2.60;99.90;;;;;;5069816;28;20225;-73
2021/04/14 05:36:41;;;;;;;6.90;4.80;;;4.40;99.90;;;;;;5073033;28;20718;-74
2021/04/14 05:39:07;;;;;;;3.47;2.87;;;6.10;99.90;;;;;;5072720;28;20657;-74
2021/04/14 05:41:32;;;;;;;6.17;3.80;;;7.20;99.90;;;;;;5074541;28;20176;-73
2021/04/14 05:43:58;;;;;;;3.00;2.40;;;7.30;99.90;;;;;;5072353;28;20190;-73
2021/04/14 05:46:24;;;;;;;2.83;2.37;;;8.00;99.90;;;;;;5072166;28;20219;-73
2021/04/14 05:48:50;;;;;;;3.10;2.27;;;8.10;99.90;;;;;;5074003;28;20195;-73
2021/04/14 05:51:21;;;;;;;4.93;2.23;;;8.40;99.90;;;;;;5072242;28;20185;-74
2021/04/14 05:53:48;;;;;;;3.20;2.40;;;8.80;99.90;;;;;;5072772;28;20929;-74
2021/04/14 05:56:14;;;;;;;11.10;2.53;;;8.80;99.90;;;;;;5071543;28;20547;-74
2021/04/14 05:58:40;;;;;;;3.70;2.57;;;8.80;99.90;;;;;;5069816;28;20426;-74
2021/04/14 06:01:08;;;;;;;6.97;2.83;;;8.40;99.90;;;;;;5071900;28;20417;-75
2021/04/14 06:03:34;;;;;;;9.90;3.50;;;7.80;99.90;;;;;;5074311;28;20251;-73
2021/04/14 06:06:00;;;;;;;6.83;4.07;;;7.40;99.90;;;;;;5067019;28;20561;-74
2021/04/14 06:08:27;;;;;;;9.77;4.20;;;7.30;99.90;;;;;;5072406;28;20296;-74
2021/04/14 06:10:52;;;;;;;5.73;3.57;;;8.00;99.90;;;;;;5073646;28;20413;-74
2021/04/14 06:13:18;;;;;;;3.40;3.10;;;8.20;99.90;;;;;;5072688;28;20895;-74
2021/04/14 06:15:44;;;;;;;8.30;3.57;;;7.90;99.90;;;;;;5072703;28;20722;-73
2021/04/14 06:18:10;;;;;;;4.50;3.80;;;9.00;99.90;;;;;;5073364;28;20709;-74
2021/04/14 06:20:36;;;;;;;5.80;3.87;;;10.00;99.90;;;;;;5068920;28;20443;-74
2021/04/14 06:23:04;;;;;;;5.57;3.10;;;11.30;99.90;;;;;;5072991;28;20165;-75
2021/04/14 06:25:35;;;;;;;7.73;2.70;;;11.90;99.90;;;;;;5067319;28;20470;-74
2021/04/14 06:28:08;;;;;;;3.60;3.27;;;11.90;99.90;;;;;;5069298;28;20496;-74
2021/04/14 06:30:35;;;;;;;4.97;3.50;;;12.00;99.90;;;;;;5069845;28;20733;-74
2021/04/14 06:33:03;;;;;;;6.20;4.10;;;10.90;99.90;;;;;;5067406;28;20442;-74
2021/04/14 06:35:30;;;;;;;6.00;3.47;;;10.10;99.90;;;;;;5071267;28;20506;-73
2021/04/14 06:37:57;;;;;;;4.77;3.53;;;9.00;99.90;;;;;;5071500;28;20548;-72
2021/04/14 06:44:01;;;;;;;9.73;4.23;;;9.40;99.90;;;;;;5056235;28;20454;-73
2021/04/14 06:46:27;;;;;;;4.77;3.70;;;10.00;99.90;;;;;;5071282;28;20840;-73
2021/04/14 06:49:01;;;;;;;6.00;3.37;;;9.80;99.90;;;;;;5070461;28;20485;-74
2021/04/14 06:51:41;;;;;;;4.53;3.43;;;9.50;99.90;;;;;;5070864;28;20799;-74
2021/04/14 06:54:20;;;;;;;7.40;3.80;;;9.50;99.90;;;;;;5069961;28;20471;-73
2021/04/14 06:56:51;;;;;;;11.03;5.17;;;9.30;99.90;;;;;;5067887;28;20458;-74
2021/04/14 06:59:22;;;;;;;5.07;3.40;;;9.40;99.90;;;;;;5071255;28;20511;-74
2021/04/14 07:01:51;;;;;;;5.83;4.33;;;9.60;99.90;;;;;;5069505;28;20794;-74
2021/04/14 07:04:33;;;;;;;4.30;3.53;;;9.70;99.90;;;;;;5072189;28;20519;-74
2021/04/14 07:07:01;;;;;;;9.00;5.23;;;9.20;99.90;;;;;;5066540;28;20479;-73
2021/04/14 07:09:31;;;;;;;8.93;4.23;;;9.40;99.90;;;;;;5072900;28;20417;-73
2021/04/14 07:11:58;;;;;;;7.23;3.30;;;9.80;99.90;;;;;;5072602;28;20478;-73
2021/04/14 07:14:25;;;;;;;5.07;3.63;;;9.60;99.90;;;;;;5071037;28;20872;-73
2021/04/14 07:16:58;;;;;;;12.93;4.33;;;9.80;99.90;;;;;;5068044;28;21167;-73
2021/04/14 07:19:28;;;;;;;6.20;3.93;;;10.20;99.90;;;;;;5070143;28;20792;-75
2021/04/14 07:22:38;;;;;;;3.60;3.30;;;10.40;99.90;;;;;;5072612;28;20484;-75
2021/04/14 07:25:10;;;;;;;4.93;4.10;;;10.70;99.90;;;;;;5049089;28;20851;-75
2021/04/14 07:27:38;;;;;;;4.60;3.70;;;10.90;99.90;;;;;;5067324;28;20444;-73
2021/04/14 07:30:13;;;;;;;8.27;5.37;;;11.30;99.90;;;;;;5070608;28;20414;-73
2021/04/14 07:32:54;;;;;;;5.60;5.10;;;11.20;99.90;;;;;;5067920;28;20441;-73
2021/04/14 07:35:50;;;;;;;9.87;5.50;;;11.10;99.90;;;;;;5067103;28;20543;-73
2021/04/14 07:38:18;;;;;;;7.13;4.77;;;11.50;99.90;;;;;;5069527;28;20442;-72
2021/04/14 07:41:21;;;;;;;5.63;3.80;;;11.80;99.90;;;;;;5070872;28;20415;-72
2021/04/14 07:44:14;;;;;;;8.43;4.60;;;11.50;99.90;;;;;;5067243;28;20436;-72
2021/04/14 07:46:41;;;;;;;5.07;4.57;;;11.70;99.90;;;;;;5066931;28;20473;-74
2021/04/14 07:49:10;;;;;;;5.83;4.70;;;12.20;99.90;;;;;;5069723;28;20426;-73
2021/04/14 07:51:36;;;;;;;6.67;4.20;;;12.00;99.90;;;;;;5067702;28;20810;-74
2021/04/14 07:54:08;;;;;;;11.07;4.37;;;12.00;99.90;;;;;;5070747;28;20411;-74
2021/04/14 07:56:56;;;;;;;4.47;3.93;;;11.90;99.90;;;;;;5066530;28;20299;-73
2021/04/14 07:59:34;;;;;;;7.40;3.40;;;12.10;99.90;;;;;;5070893;28;20426;-74
2021/04/14 08:02:02;;;;;;;7.73;4.17;;;12.00;99.90;;;;;;5069447;28;20551;-74
2021/04/14 08:04:29;;;;;;;7.03;4.10;;;12.40;99.90;;;;;;5066649;28;20445;-74
2021/04/14 08:07:06;;;;;;;6.77;4.53;;;12.30;99.90;;;;;;5066082;28;21749;-74
2021/04/14 08:09:32;;;;;;;8.50;4.13;;;12.10;99.90;;;;;;5067579;28;20500;-73
2021/04/14 08:12:07;;;;;;;6.30;3.10;;;12.20;99.90;;;;;;5070254;28;20422;-74
2021/04/14 08:14:35;;;;;;;9.63;3.50;;;12.70;99.90;;;;;;5063248;28;20651;-73
2021/04/14 08:17:13;;;;;;;3.83;2.80;;;12.70;99.90;;;;;;5069563;28;20835;-74
2021/04/14 08:19:39;;;;;;;3.50;3.20;;;12.50;99.90;;;;;;5065148;28;20438;-72
2021/04/14 08:22:11;;;;;;;5.30;3.40;;;12.10;99.90;;;;;;5070144;28;20529;-72
2021/04/14 08:25:01;;;;;;;3.23;2.80;;;12.20;99.90;;;;;;5069676;28;20461;-73
2021/04/14 08:27:38;;;;;;;3.30;2.97;;;12.60;99.90;;;;;;5068384;28;20469;-74
2021/04/14 08:30:07;;;;;;;4.57;4.13;;;12.40;99.90;;;;;;5068004;28;20935;-73
2021/04/14 08:32:33;;;;;;;3.70;3.07;;;11.90;99.90;;;;;;5065034;28;20431;-74
2021/04/14 08:35:02;;;;;;;5.37;3.63;;;12.20;99.90;;;;;;5067735;28;20977;-73
2021/04/14 08:37:29;;;;;;;5.80;4.27;;;12.40;99.90;;;;;;5069947;28;20666;-74
2021/04/14 08:40:08;;;;;;;4.00;2.93;;;12.90;99.90;;;;;;5065855;28;20434;-74
2021/04/14 08:42:37;;;;;;;5.10;3.30;;;13.20;99.90;;;;;;5066138;28;20422;-74
2021/04/14 08:45:27;;;;;;;5.67;3.47;;;13.00;99.90;;;;;;5064077;28;20435;-73
2021/04/14 08:48:08;;;;;;;6.73;3.27;;;13.20;99.90;;;;;;5066959;28;20432;-73
2021/04/14 08:50:44;;;;;;;8.60;3.67;;;13.20;99.90;;;;;;5062230;28;20431;-73
2021/04/14 08:53:15;;;;;;;7.13;3.07;;;13.10;99.90;;;;;;5065663;28;20426;-74
2021/04/14 08:55:41;;;;;;;7.73;3.00;;;13.10;99.90;;;;;;5047198;28;20427;-74
2021/04/14 08:58:08;;;;;;;6.23;3.17;;;13.40;99.20;;;;;;5068752;28;20438;-74
2021/04/14 09:00:35;;;;;;;4.30;2.53;;;13.70;99.90;;;;;;5069708;28;20220;-74
2021/04/14 09:03:04;;;;;;;3.90;2.67;;;13.90;99.90;;;;;;5072382;28;20442;-74
2021/04/14 09:05:30;;;;;;;2.77;2.10;;;13.80;98.80;;;;;;5065220;28;20494;-74
2021/04/14 09:07:57;;;;;;;2.53;2.27;;;13.90;99.20;;;;;;5066722;28;20478;-75
2021/04/14 09:10:35;;;;;;;3.30;2.73;;;13.70;97.70;;;;;;5069487;28;20414;-74
2021/04/14 09:13:01;;;;;;;3.17;2.50;;;14.00;98.00;;;;;;5065667;28;20426;-73
2021/04/14 09:15:27;;;;;;;6.27;3.87;;;14.10;98.00;;;;;;5066213;28;20493;-73
2021/04/14 09:17:58;;;;;;;4.80;3.33;;;14.00;97.60;;;;;;5069227;28;20463;-74
2021/04/14 09:20:30;;;;;;;4.13;2.23;;;14.30;97.60;;;;;;5067970;28;20435;-73
2021/04/14 09:23:01;;;;;;;4.77;3.13;;;14.70;97.70;;;;;;5069400;28;21125;-74
2021/04/14 09:25:39;;;;;;;3.07;2.77;;;14.30;98.10;;;;;;5064388;28;20864;-73
2021/04/14 09:28:07;;;;;;;5.40;2.60;;;13.90;97.40;;;;;;5064733;28;20470;-73
2021/04/14 09:30:40;;;;;;;5.23;2.90;;;13.90;98.10;;;;;;5069248;28;20427;-74
2021/04/14 09:33:05;;;;;;;6.03;2.80;;;14.00;98.30;;;;;;5065003;28;20859;-73
2021/04/14 09:35:31;;;;;;;3.60;3.30;;;13.90;97.60;;;;;;5067268;28;20447;-74
2021/04/14 09:38:28;;;;;;;7.50;3.20;;;14.10;98.00;;;;;;5064744;28;20201;-73
2021/04/14 09:41:15;;;;;;;5.33;3.07;;;14.60;94.70;;;;;;5069166;28;20181;-74
2021/04/14 09:43:44;;;;;;;10.43;2.50;;;14.90;95.20;;;;;;5067220;28;20476;-73
2021/04/14 09:46:28;;;;;;;3.20;2.63;;;15.10;94.30;;;;;;5066707;28;20477;-74
2021/04/14 09:48:54;;;;;;;2.70;2.20;;;15.50;95.00;;;;;;5066378;28;21240;-74
2021/04/14 09:51:32;;;;;;;4.37;2.63;;;16.00;94.20;;;;;;5064074;28;20447;-74
2021/04/14 09:54:18;;;;;;;5.07;2.50;;;16.50;94.80;;;;;;5068979;28;20655;-74
2021/04/14 09:56:48;;;;;;;3.80;2.93;;;16.70;95.10;;;;;;5064945;28;20454;-74
2021/04/14 09:59:22;;;;;;;5.70;2.77;;;17.00;93.90;;;;;;5069271;28;20457;-75
2021/04/14 10:01:50;;;;;;;5.13;3.07;;;17.00;93.70;;;;;;5065837;28;20442;-74
2021/04/14 10:04:24;;;;;;;3.30;2.97;;;16.60;92.20;;;;;;5069071;28;20430;-74
2021/04/14 10:06:54;;;;;;;3.93;2.93;;;16.00;91.70;;;;;;5065617;28;20466;-75
2021/04/14 10:09:25;;;;;;;3.40;2.63;;;15.60;92.50;;;;;;5070867;28;20445;-75
2021/04/14 10:11:52;;;;;;;3.00;2.63;;;15.50;92.40;;;;;;5072487;28;21804;-75
2021/04/14 10:14:23;;;;;;;4.97;2.50;;;15.40;92.10;;;;;;5068761;28;20534;-75
2021/04/14 10:16:51;;;;;;;8.10;2.67;;;15.10;92.40;;;;;;5071330;28;20531;-75
2021/04/14 10:19:30;;;;;;;3.60;2.87;;;14.20;92.90;;;;;;5071685;28;20454;-74
2021/04/14 10:21:56;;;;;;;4.30;2.63;;;13.30;93.40;;;;;;5070973;28;20436;-74
2021/04/14 10:24:22;;;;;;;5.10;2.33;;;12.70;93.60;;;;;;5071304;28;20520;-74
2021/04/14 10:26:54;;;;;;;3.73;3.13;;;11.90;93.80;;;;;;5070763;28;20531;-74
2021/04/14 10:29:22;;;;;;;4.33;2.60;;;11.70;94.60;;;;;;5072990;28;20419;-73
2021/04/14 10:31:48;;;;;;;3.70;3.20;;;11.50;95.50;;;;;;5071461;28;20426;-74
2021/04/14 10:34:30;;;;;;;7.00;3.47;;;11.40;96.10;;;;;;5073395;28;20419;-74
2021/04/14 10:36:57;;;;;;;5.63;2.57;;;11.10;94.40;;;;;;5067497;28;20556;-74
2021/04/14 10:39:30;;;;;;;6.40;3.17;;;10.70;94.30;;;;;;5073820;28;20421;-74
2021/04/14 10:41:57;;;;;;;2.40;2.20;;;10.80;96.40;;;;;;5071039;28;21675;-74
2021/04/14 10:44:33;;;;;;;7.27;2.60;;;11.60;96.40;;;;;;5073864;28;20940;-74
2021/04/14 10:47:18;;;;;;;2.67;2.50;;;12.40;95.10;;;;;;5067794;28;20493;-74
2021/04/14 10:49:44;;;;;;;3.00;2.30;;;11.80;95.10;;;;;;5065064;28;20446;-74
2021/04/14 10:52:24;;;;;;;6.17;2.70;;;11.30;95.90;;;;;;5073088;28;20786;-74
2021/04/14 10:54:55;;;;;;;3.10;2.50;;;10.80;96.60;;;;;;5072526;28;20441;-74
2021/04/14 10:57:31;;;;;;;3.43;2.80;;;10.20;96.80;;;;;;5073218;28;20429;-73
2021/04/14 11:00:18;;;;;;;5.33;4.00;;;9.80;95.70;;;;;;5069353;28;20492;-73
2021/04/14 11:02:46;;;;;;;3.00;2.67;;;9.40;95.80;;;;;;5066179;28;20990;-74
2021/04/14 11:05:14;;;;;;;6.67;2.73;;;9.10;96.50;;;;;;5071747;28;20502;-74
2021/04/14 11:07:42;;;;;;;2.83;2.63;;;8.80;96.70;;;;;;5072476;28;20922;-74
2021/04/14 11:10:16;;;;;;;5.13;3.00;;;8.60;96.60;;;;;;5065188;28;20438;-73
2021/04/14 11:12:48;;;;;;;7.23;2.30;;;8.50;94.60;;;;;;5070707;28;20450;-74
2021/04/14 11:15:17;;;;;;;5.20;2.53;;;8.40;93.50;;;;;;5070822;28;20463;-74
2021/04/14 11:17:43;;;;;;;6.10;2.67;;;8.40;93.50;;;;;;5073258;28;20817;-72
2021/04/14 11:20:15;;;;;;;2.77;2.50;;;8.40;93.70;;;;;;5068097;28;20450;-74
2021/04/14 11:22:52;;;;;;;3.43;2.50;;;8.60;93.30;;;;;;5071646;28;20424;-73
2021/04/14 11:25:31;;;;;;;4.40;2.20;;;8.50;96.50;;;;;;5072122;28;20512;-73
2021/04/14 11:28:08;;;;;;;3.13;2.50;;;8.50;94.90;;;;;;5072799;28;20459;-74
2021/04/14 11:30:57;;;;;;;2.07;1.97;;;8.30;92.10;;;;;;5069586;28;20408;-73
2021/04/14 11:33:38;;;;;;;2.40;2.20;;;8.30;92.80;;;;;;5066304;28;20449;-74
2021/04/14 11:36:15;;;;;;;3.70;2.87;;;8.70;94.60;;;;;;5067785;28;20522;-73
2021/04/14 11:38:43;;;;;;;5.93;3.00;;;9.00;98.00;;;;;;5070575;28;20480;-74
2021/04/14 11:41:35;;;;;;;3.90;3.03;;;9.00;97.50;;;;;;5072794;28;20785;-74
2021/04/14 11:44:13;;;;;;;3.13;2.83;;;9.10;97.60;;;;;;5063522;28;20443;-74
2021/04/14 11:46:40;;;;;;;4.43;2.90;;;9.20;97.40;;;;;;5072468;28;20480;-73
2021/04/14 11:49:09;;;;;;;3.30;3.00;;;9.30;97.90;;;;;;5070801;28;20454;-74
2021/04/14 11:51:40;;;;;;;3.50;3.20;;;9.30;97.60;;;;;;5071234;28;20931;-72
2021/04/14 11:54:13;;;;;;;5.27;3.00;;;9.30;98.00;;;;;;5070596;28;20429;-74
2021/04/14 11:56:44;;;;;;;3.03;2.83;;;9.40;97.70;;;;;;5071026;28;20460;-73
2021/04/14 11:59:25;;;;;;;4.47;2.40;;;9.50;97.50;;;;;;5072306;28;20421;-74
2021/04/14 12:02:03;;;;;;;4.07;2.67;;;9.60;98.00;;;;;;5070225;28;20417;-75
2021/04/14 12:04:31;;;;;;;6.33;2.70;;;9.90;99.00;;;;;;5068313;28;20426;-74
2021/04/14 12:06:57;;;;;;;3.10;2.33;;;10.20;98.00;;;;;;5069873;28;20478;-74
2021/04/14 12:09:23;;;;;;;7.10;2.10;;;10.10;98.70;;;;;;5072029;28;20414;-74
2021/04/14 12:12:04;;;;;;;2.53;2.30;;;9.90;99.90;;;;;;5070190;28;20516;-74
2021/04/14 12:14:30;;;;;;;4.30;2.60;;;9.90;99.90;;;;;;5068011;28;20182;-73
2021/04/14 12:16:56;;;;;;;2.47;2.27;;;9.70;99.90;;;;;;5069477;28;20467;-73
2021/04/14 12:19:21;;;;;;;3.00;2.80;;;9.70;99.90;;;;;;5069984;28;20456;-74
2021/04/14 12:21:49;;;;;;;5.60;2.67;;;9.50;99.90;;;;;;5068874;28;21810;-74
2021/04/14 12:24:15;;;;;;;2.67;2.43;;;9.10;99.90;;;;;;5070908;28;20191;-74
2021/04/14 12:26:40;;;;;;;2.70;2.50;;;8.90;99.90;;;;;;5071873;28;20830;-73
2021/04/14 12:29:06;;;;;;;7.10;3.30;;;8.80;99.90;;;;;;5063475;28;20722;-73
2021/04/14 12:31:31;;;;;;;4.63;3.03;;;8.60;99.90;;;;;;5071085;28;20554;-73
2021/04/14 12:34:00;;;;;;;4.47;2.63;;;8.50;99.90;;;;;;5071092;28;20611;-73
2021/04/14 12:36:26;;;;;;;3.40;3.10;;;8.30;99.90;;;;;;5069364;28;20270;-74
2021/04/14 12:38:52;;;;;;;2.60;2.50;;;8.20;99.90;;;;;;5072057;28;20938;-74
2021/04/14 12:41:18;;;;;;;3.67;3.07;;;8.40;99.90;;;;;;5069263;28;20250;-74
2021/04/14 12:43:43;;;;;;;3.60;3.30;;;8.50;99.90;;;;;;5070874;28;20170;-74
2021/04/14 12:46:09;;;;;;;5.83;2.53;;;8.30;99.90;;;;;;5068685;28;20217;-74
2021/04/14 12:48:39;;;;;;;3.23;2.93;;;8.20;99.90;;;;;;5071987;28;20176;-74
2021/04/14 12:51:05;;;;;;;3.47;3.17;;;8.10;99.90;;;;;;5064059;28;20528;-75
2021/04/14 12:53:35;;;;;;;6.30;3.10;;;8.00;99.90;;;;;;5071613;28;20413;-75
2021/04/14 12:56:03;;;;;;;3.10;2.80;;;8.00;99.90;;;;;;5065031;28;20273;-73
2021/04/14 12:58:36;;;;;;;3.20;3.00;;;8.00;99.90;;;;;;5067754;28;20522;-74
2021/04/14 13:01:04;;;;;;;3.37;3.10;;;8.20;99.90;;;;;;5058215;28;20517;-70
2021/04/14 13:03:52;;;;;;;3.40;3.20;;;8.00;99.90;;;;;;5071072;28;20848;-73
2021/04/14 13:06:24;;;;;;;5.37;3.37;;;7.90;99.90;;;;;;5060323;28;20472;-74